sensor_id;sensor_type;location;lat;lon;timestamp;P1;durP1;ratioP1;P2;durP2;ratioP2
78885;SDS011;68269;52.514;5.722;2024-03-17T00:02:17;8.95;;;2.38;;
78885;SDS011;68269;52.514;5.722;2024-03-17T00:04:46;13.43;;;2.58;;
78885;SDS011;68269;52.514;5.722;2024-03-17T00:07:16;10.07;;;2.70;;
78885;SDS011;68269;52.514;5.722;2024-03-17T00:09:45;5.97;;;2.47;;
78885;SDS011;68269;52.514;5.722;2024-03-17T00:12:12;6.28;;;2.28;;
78885;SDS011;68269;52.514;5.722;2024-03-17T00:14:42;7.05;;;2.70;;
78885;SDS011;68269;52.514;5.722;2024-03-17T00:17:08;8.88;;;2.38;;
78885;SDS011;68269;52.514;5.722;2024-03-17T00:19:38;6.28;;;1.90;;
78885;SDS011;68269;52.514;5.722;2024-03-17T00:22:07;9.35;;;3.42;;
78885;SDS011;68269;52.514;5.722;2024-03-17T00:24:37;13.15;;;3.85;;
78885;SDS011;68269;52.514;5.722;2024-03-17T00:27:06;8.95;;;2.75;;
78885;SDS011;68269;52.514;5.722;2024-03-17T00:29:33;9.30;;;3.00;;
78885;SDS011;68269;52.514;5.722;2024-03-17T00:32:02;21.35;;;3.30;;
78885;SDS011;68269;52.514;5.722;2024-03-17T00:34:29;9.45;;;2.38;;
78885;SDS011;68269;52.514;5.722;2024-03-17T00:36:59;7.90;;;2.30;;
78885;SDS011;68269;52.514;5.722;2024-03-17T00:39:25;11.30;;;2.80;;
78885;SDS011;68269;52.514;5.722;2024-03-17T00:41:58;7.72;;;2.45;;
78885;SDS011;68269;52.514;5.722;2024-03-17T00:44:25;7.15;;;2.38;;
78885;SDS011;68269;52.514;5.722;2024-03-17T00:46:54;8.52;;;2.20;;
78885;SDS011;68269;52.514;5.722;2024-03-17T00:49:20;4.55;;;1.60;;
78885;SDS011;68269;52.514;5.722;2024-03-17T00:51:50;5.18;;;1.60;;
78885;SDS011;68269;52.514;5.722;2024-03-17T00:54:16;3.67;;;1.02;;
78885;SDS011;68269;52.514;5.722;2024-03-17T00:56:46;3.53;;;1.10;;
78885;SDS011;68269;52.514;5.722;2024-03-17T00:59:15;5.15;;;1.40;;
78885;SDS011;68269;52.514;5.722;2024-03-17T01:01:45;3.92;;;1.00;;
78885;SDS011;68269;52.514;5.722;2024-03-17T01:06:41;5.00;;;1.40;;
78885;SDS011;68269;52.514;5.722;2024-03-17T01:09:07;4.22;;;0.98;;
78885;SDS011;68269;52.514;5.722;2024-03-17T01:11:37;3.10;;;1.10;;
78885;SDS011;68269;52.514;5.722;2024-03-17T01:14:04;3.22;;;1.38;;
78885;SDS011;68269;52.514;5.722;2024-03-17T01:16:36;8.32;;;1.30;;
78885;SDS011;68269;52.514;5.722;2024-03-17T01:19:03;9.82;;;1.90;;
78885;SDS011;68269;52.514;5.722;2024-03-17T01:21:32;5.75;;;1.10;;
78885;SDS011;68269;52.514;5.722;2024-03-17T01:23:59;8.80;;;1.60;;
78885;SDS011;68269;52.514;5.722;2024-03-17T01:26:28;8.57;;;1.08;;
78885;SDS011;68269;52.514;5.722;2024-03-17T01:28:55;2.22;;;0.68;;
78885;SDS011;68269;52.514;5.722;2024-03-17T01:31:24;2.47;;;0.52;;
78885;SDS011;68269;52.514;5.722;2024-03-17T01:33:53;2.97;;;0.55;;
78885;SDS011;68269;52.514;5.722;2024-03-17T01:36:23;3.53;;;0.90;;
78885;SDS011;68269;52.514;5.722;2024-03-17T01:38:50;6.45;;;0.80;;
78885;SDS011;68269;52.514;5.722;2024-03-17T01:41:19;2.38;;;0.50;;
78885;SDS011;68269;52.514;5.722;2024-03-17T01:43:46;3.22;;;1.00;;
78885;SDS011;68269;52.514;5.722;2024-03-17T01:46:15;2.15;;;0.68;;
78885;SDS011;68269;52.514;5.722;2024-03-17T01:48:43;5.43;;;0.60;;
78885;SDS011;68269;52.514;5.722;2024-03-17T01:51:15;2.80;;;0.70;;
78885;SDS011;68269;52.514;5.722;2024-03-17T01:53:43;2.28;;;0.50;;
78885;SDS011;68269;52.514;5.722;2024-03-17T01:56:13;2.45;;;1.00;;
78885;SDS011;68269;52.514;5.722;2024-03-17T01:58:42;2.50;;;0.70;;
78885;SDS011;68269;52.514;5.722;2024-03-17T02:01:13;2.13;;;0.47;;
78885;SDS011;68269;52.514;5.722;2024-03-17T02:06:09;5.82;;;1.00;;
78885;SDS011;68269;52.514;5.722;2024-03-17T02:08:50;2.53;;;0.80;;
78885;SDS011;68269;52.514;5.722;2024-03-17T02:13:52;5.78;;;0.70;;
78885;SDS011;68269;52.514;5.722;2024-03-17T02:16:22;1.92;;;0.43;;
78885;SDS011;68269;52.514;5.722;2024-03-17T02:18:50;0.80;;;0.38;;
78885;SDS011;68269;52.514;5.722;2024-03-17T02:21:23;2.33;;;0.80;;
78885;SDS011;68269;52.514;5.722;2024-03-17T02:23:56;3.67;;;0.70;;
78885;SDS011;68269;52.514;5.722;2024-03-17T02:26:25;5.43;;;0.50;;
78885;SDS011;68269;52.514;5.722;2024-03-17T02:28:52;3.65;;;1.10;;
78885;SDS011;68269;52.514;5.722;2024-03-17T02:31:22;3.88;;;0.90;;
78885;SDS011;68269;52.514;5.722;2024-03-17T02:33:48;3.33;;;0.98;;
78885;SDS011;68269;52.514;5.722;2024-03-17T02:36:17;7.88;;;1.00;;
78885;SDS011;68269;52.514;5.722;2024-03-17T02:38:44;5.53;;;1.00;;
78885;SDS011;68269;52.514;5.722;2024-03-17T02:41:28;2.05;;;0.50;;
78885;SDS011;68269;52.514;5.722;2024-03-17T02:43:58;8.10;;;1.00;;
78885;SDS011;68269;52.514;5.722;2024-03-17T02:46:27;3.15;;;0.70;;
78885;SDS011;68269;52.514;5.722;2024-03-17T02:48:56;5.45;;;0.82;;
78885;SDS011;68269;52.514;5.722;2024-03-17T02:51:25;2.13;;;0.55;;
78885;SDS011;68269;52.514;5.722;2024-03-17T02:53:55;2.97;;;0.90;;
78885;SDS011;68269;52.514;5.722;2024-03-17T02:56:25;4.20;;;1.00;;
78885;SDS011;68269;52.514;5.722;2024-03-17T02:58:57;3.10;;;0.82;;
78885;SDS011;68269;52.514;5.722;2024-03-17T03:01:26;5.93;;;1.20;;
78885;SDS011;68269;52.514;5.722;2024-03-17T03:03:56;6.55;;;1.75;;
78885;SDS011;68269;52.514;5.722;2024-03-17T03:06:25;5.40;;;1.40;;
78885;SDS011;68269;52.514;5.722;2024-03-17T03:08:54;6.22;;;1.40;;
78885;SDS011;68269;52.514;5.722;2024-03-17T03:11:23;8.13;;;2.00;;
78885;SDS011;68269;52.514;5.722;2024-03-17T03:13:53;4.50;;;1.00;;
78885;SDS011;68269;52.514;5.722;2024-03-17T03:16:24;7.38;;;1.45;;
78885;SDS011;68269;52.514;5.722;2024-03-17T03:18:54;4.50;;;1.20;;
78885;SDS011;68269;52.514;5.722;2024-03-17T03:21:23;5.75;;;1.58;;
78885;SDS011;68269;52.514;5.722;2024-03-17T03:23:52;4.90;;;0.88;;
78885;SDS011;68269;52.514;5.722;2024-03-17T03:26:21;5.30;;;1.52;;
78885;SDS011;68269;52.514;5.722;2024-03-17T03:28:51;7.20;;;1.30;;
78885;SDS011;68269;52.514;5.722;2024-03-17T03:31:21;8.63;;;1.65;;
78885;SDS011;68269;52.514;5.722;2024-03-17T03:33:53;6.47;;;1.90;;
78885;SDS011;68269;52.514;5.722;2024-03-17T03:36:20;6.22;;;1.42;;
78885;SDS011;68269;52.514;5.722;2024-03-17T03:38:49;7.15;;;1.85;;
78885;SDS011;68269;52.514;5.722;2024-03-17T03:41:19;5.75;;;1.52;;
78885;SDS011;68269;52.514;5.722;2024-03-17T03:43:48;9.70;;;1.92;;
78885;SDS011;68269;52.514;5.722;2024-03-17T03:46:18;4.32;;;1.35;;
78885;SDS011;68269;52.514;5.722;2024-03-17T03:48:47;6.75;;;2.33;;
78885;SDS011;68269;52.514;5.722;2024-03-17T03:51:19;9.50;;;2.20;;
78885;SDS011;68269;52.514;5.722;2024-03-17T03:53:50;6.85;;;2.08;;
78885;SDS011;68269;52.514;5.722;2024-03-17T03:56:21;6.53;;;1.92;;
78885;SDS011;68269;52.514;5.722;2024-03-17T03:58:51;11.68;;;2.83;;
78885;SDS011;68269;52.514;5.722;2024-03-17T04:01:20;6.88;;;1.92;;
78885;SDS011;68269;52.514;5.722;2024-03-17T04:03:49;9.95;;;2.20;;
78885;SDS011;68269;52.514;5.722;2024-03-17T04:06:21;7.32;;;2.58;;
78885;SDS011;68269;52.514;5.722;2024-03-17T04:08:51;5.85;;;1.92;;
78885;SDS011;68269;52.514;5.722;2024-03-17T04:11:20;5.13;;;1.77;;
78885;SDS011;68269;52.514;5.722;2024-03-17T04:13:49;9.15;;;2.90;;
78885;SDS011;68269;52.514;5.722;2024-03-17T04:16:18;6.35;;;2.30;;
78885;SDS011;68269;52.514;5.722;2024-03-17T04:18:48;10.05;;;2.60;;
78885;SDS011;68269;52.514;5.722;2024-03-17T04:21:17;5.32;;;1.77;;
78885;SDS011;68269;52.514;5.722;2024-03-17T04:23:49;6.88;;;1.92;;
78885;SDS011;68269;52.514;5.722;2024-03-17T04:26:19;10.05;;;2.70;;
78885;SDS011;68269;52.514;5.722;2024-03-17T04:28:48;10.13;;;2.60;;
78885;SDS011;68269;52.514;5.722;2024-03-17T04:31:18;9.98;;;2.95;;
78885;SDS011;68269;52.514;5.722;2024-03-17T04:33:49;9.48;;;2.95;;
78885;SDS011;68269;52.514;5.722;2024-03-17T04:36:18;9.90;;;2.38;;
78885;SDS011;68269;52.514;5.722;2024-03-17T04:38:50;10.43;;;2.53;;
78885;SDS011;68269;52.514;5.722;2024-03-17T04:41:20;7.68;;;2.22;;
78885;SDS011;68269;52.514;5.722;2024-03-17T04:43:49;8.70;;;2.70;;
78885;SDS011;68269;52.514;5.722;2024-03-17T04:46:18;8.82;;;2.72;;
78885;SDS011;68269;52.514;5.722;2024-03-17T04:48:48;7.55;;;2.45;;
78885;SDS011;68269;52.514;5.722;2024-03-17T04:51:17;10.82;;;3.90;;
78885;SDS011;68269;52.514;5.722;2024-03-17T04:53:47;10.50;;;2.35;;
78885;SDS011;68269;52.514;5.722;2024-03-17T04:56:18;9.38;;;3.33;;
78885;SDS011;68269;52.514;5.722;2024-03-17T04:58:48;8.43;;;2.55;;
78885;SDS011;68269;52.514;5.722;2024-03-17T05:01:17;11.15;;;3.08;;
78885;SDS011;68269;52.514;5.722;2024-03-17T05:03:46;8.75;;;2.72;;
78885;SDS011;68269;52.514;5.722;2024-03-17T05:06:15;10.02;;;2.47;;
78885;SDS011;68269;52.514;5.722;2024-03-17T05:08:45;8.35;;;3.00;;
78885;SDS011;68269;52.514;5.722;2024-03-17T05:11:16;8.63;;;3.28;;
78885;SDS011;68269;52.514;5.722;2024-03-17T05:13:46;8.13;;;2.53;;
78885;SDS011;68269;52.514;5.722;2024-03-17T05:16:15;12.48;;;2.85;;
78885;SDS011;68269;52.514;5.722;2024-03-17T05:18:44;10.60;;;2.83;;
78885;SDS011;68269;52.514;5.722;2024-03-17T05:21:13;7.78;;;2.30;;
78885;SDS011;68269;52.514;5.722;2024-03-17T05:23:43;9.57;;;3.08;;
78885;SDS011;68269;52.514;5.722;2024-03-17T05:26:12;10.95;;;3.05;;
78885;SDS011;68269;52.514;5.722;2024-03-17T05:28:44;7.90;;;2.33;;
78885;SDS011;68269;52.514;5.722;2024-03-17T05:31:13;10.18;;;3.08;;
78885;SDS011;68269;52.514;5.722;2024-03-17T05:33:43;8.52;;;2.78;;
78885;SDS011;68269;52.514;5.722;2024-03-17T05:36:13;7.28;;;2.67;;
78885;SDS011;68269;52.514;5.722;2024-03-17T05:38:45;15.60;;;3.33;;
78885;SDS011;68269;52.514;5.722;2024-03-17T05:41:15;16.65;;;3.42;;
78885;SDS011;68269;52.514;5.722;2024-03-17T05:43:47;9.57;;;2.60;;
78885;SDS011;68269;52.514;5.722;2024-03-17T05:46:16;7.68;;;2.92;;
78885;SDS011;68269;52.514;5.722;2024-03-17T05:48:46;10.02;;;3.33;;
78885;SDS011;68269;52.514;5.722;2024-03-17T05:51:15;10.18;;;3.22;;
78885;SDS011;68269;52.514;5.722;2024-03-17T05:53:44;9.45;;;3.03;;
78885;SDS011;68269;52.514;5.722;2024-03-17T05:56:14;9.30;;;3.15;;
78885;SDS011;68269;52.514;5.722;2024-03-17T05:58:44;8.27;;;2.85;;
78885;SDS011;68269;52.514;5.722;2024-03-17T06:01:15;10.85;;;3.70;;
78885;SDS011;68269;52.514;5.722;2024-03-17T06:03:45;9.63;;;3.72;;
78885;SDS011;68269;52.514;5.722;2024-03-17T06:06:14;12.68;;;4.82;;
78885;SDS011;68269;52.514;5.722;2024-03-17T06:08:43;9.82;;;3.63;;
78885;SDS011;68269;52.514;5.722;2024-03-17T06:11:12;9.43;;;3.20;;
78885;SDS011;68269;52.514;5.722;2024-03-17T06:13:42;11.43;;;4.07;;
78885;SDS011;68269;52.514;5.722;2024-03-17T06:16:14;11.20;;;3.72;;
78885;SDS011;68269;52.514;5.722;2024-03-17T06:18:45;16.50;;;3.70;;
78885;SDS011;68269;52.514;5.722;2024-03-17T06:21:16;9.88;;;3.42;;
78885;SDS011;68269;52.514;5.722;2024-03-17T06:23:45;14.13;;;3.60;;
78885;SDS011;68269;52.514;5.722;2024-03-17T06:26:14;11.23;;;4.00;;
78885;SDS011;68269;52.514;5.722;2024-03-17T06:28:44;9.60;;;3.10;;
78885;SDS011;68269;52.514;5.722;2024-03-17T06:31:16;9.43;;;3.15;;
78885;SDS011;68269;52.514;5.722;2024-03-17T06:33:45;11.15;;;3.95;;
78885;SDS011;68269;52.514;5.722;2024-03-17T06:36:14;10.00;;;3.60;;
78885;SDS011;68269;52.514;5.722;2024-03-17T06:38:43;10.98;;;4.00;;
78885;SDS011;68269;52.514;5.722;2024-03-17T06:41:13;10.15;;;3.15;;
78885;SDS011;68269;52.514;5.722;2024-03-17T06:43:43;11.02;;;3.58;;
78885;SDS011;68269;52.514;5.722;2024-03-17T06:46:13;10.88;;;3.55;;
78885;SDS011;68269;52.514;5.722;2024-03-17T06:48:44;7.47;;;2.47;;
78885;SDS011;68269;52.514;5.722;2024-03-17T06:51:14;11.73;;;3.50;;
78885;SDS011;68269;52.514;5.722;2024-03-17T06:53:43;11.63;;;3.72;;
78885;SDS011;68269;52.514;5.722;2024-03-17T06:56:12;9.52;;;3.45;;
78885;SDS011;68269;52.514;5.722;2024-03-17T06:58:42;10.38;;;3.55;;
78885;SDS011;68269;52.514;5.722;2024-03-17T07:01:11;9.73;;;3.65;;
78885;SDS011;68269;52.514;5.722;2024-03-17T07:03:43;8.98;;;3.47;;
78885;SDS011;68269;52.514;5.722;2024-03-17T07:06:12;10.00;;;4.20;;
78885;SDS011;68269;52.514;5.722;2024-03-17T07:08:41;7.47;;;2.58;;
78885;SDS011;68269;52.514;5.722;2024-03-17T07:11:10;11.63;;;3.72;;
78885;SDS011;68269;52.514;5.722;2024-03-17T07:13:40;11.60;;;4.03;;
78885;SDS011;68269;52.514;5.722;2024-03-17T07:16:10;13.38;;;3.85;;
78885;SDS011;68269;52.514;5.722;2024-03-17T07:18:39;13.45;;;4.22;;
78885;SDS011;68269;52.514;5.722;2024-03-17T07:21:12;9.52;;;3.28;;
78885;SDS011;68269;52.514;5.722;2024-03-17T07:23:41;9.80;;;3.30;;
78885;SDS011;68269;52.514;5.722;2024-03-17T07:26:10;10.55;;;3.63;;
78885;SDS011;68269;52.514;5.722;2024-03-17T07:28:40;9.88;;;3.92;;
78885;SDS011;68269;52.514;5.722;2024-03-17T07:31:10;16.80;;;3.83;;
78885;SDS011;68269;52.514;5.722;2024-03-17T07:33:40;10.25;;;4.03;;
78885;SDS011;68269;52.514;5.722;2024-03-17T07:36:12;12.10;;;4.82;;
78885;SDS011;68269;52.514;5.722;2024-03-17T07:38:41;10.88;;;3.67;;
78885;SDS011;68269;52.514;5.722;2024-03-17T07:41:10;11.75;;;4.00;;
78885;SDS011;68269;52.514;5.722;2024-03-17T07:43:39;11.43;;;3.53;;
78885;SDS011;68269;52.514;5.722;2024-03-17T07:46:10;10.32;;;3.58;;
78885;SDS011;68269;52.514;5.722;2024-03-17T07:48:40;11.93;;;4.35;;
78885;SDS011;68269;52.514;5.722;2024-03-17T07:51:13;11.25;;;3.78;;
78885;SDS011;68269;52.514;5.722;2024-03-17T07:53:45;7.90;;;2.42;;
78885;SDS011;68269;52.514;5.722;2024-03-17T07:56:15;10.57;;;3.92;;
78885;SDS011;68269;52.514;5.722;2024-03-17T07:58:45;10.98;;;3.95;;
78885;SDS011;68269;52.514;5.722;2024-03-17T08:01:17;10.35;;;3.63;;
78885;SDS011;68269;52.514;5.722;2024-03-17T08:03:46;8.93;;;3.45;;
78885;SDS011;68269;52.514;5.722;2024-03-17T08:06:23;9.30;;;2.95;;
78885;SDS011;68269;52.514;5.722;2024-03-17T08:08:53;11.02;;;3.90;;
78885;SDS011;68269;52.514;5.722;2024-03-17T08:11:22;10.70;;;3.47;;
78885;SDS011;68269;52.514;5.722;2024-03-17T08:13:52;8.52;;;2.95;;
78885;SDS011;68269;52.514;5.722;2024-03-17T08:16:21;9.75;;;2.70;;
78885;SDS011;68269;52.514;5.722;2024-03-17T08:18:50;12.80;;;2.75;;
78885;SDS011;68269;52.514;5.722;2024-03-17T08:21:19;7.88;;;2.13;;
78885;SDS011;68269;52.514;5.722;2024-03-17T08:23:52;10.13;;;3.17;;
78885;SDS011;68269;52.514;5.722;2024-03-17T08:26:22;9.75;;;2.75;;
78885;SDS011;68269;52.514;5.722;2024-03-17T08:28:51;8.93;;;3.28;;
78885;SDS011;68269;52.514;5.722;2024-03-17T08:31:20;8.80;;;2.90;;
78885;SDS011;68269;52.514;5.722;2024-03-17T08:33:49;8.15;;;2.10;;
78885;SDS011;68269;52.514;5.722;2024-03-17T08:36:19;8.65;;;2.70;;
78885;SDS011;68269;52.514;5.722;2024-03-17T08:38:48;8.98;;;3.25;;
78885;SDS011;68269;52.514;5.722;2024-03-17T08:41:21;7.85;;;2.50;;
78885;SDS011;68269;52.514;5.722;2024-03-17T08:43:50;9.55;;;3.35;;
78885;SDS011;68269;52.514;5.722;2024-03-17T08:46:19;7.70;;;2.45;;
78885;SDS011;68269;52.514;5.722;2024-03-17T08:48:49;6.85;;;3.15;;
78885;SDS011;68269;52.514;5.722;2024-03-17T08:51:18;9.25;;;2.17;;
78885;SDS011;68269;52.514;5.722;2024-03-17T08:53:47;5.88;;;2.05;;
78885;SDS011;68269;52.514;5.722;2024-03-17T08:56:21;12.45;;;2.80;;
78885;SDS011;68269;52.514;5.722;2024-03-17T08:58:50;10.80;;;2.67;;
78885;SDS011;68269;52.514;5.722;2024-03-17T09:01:19;7.22;;;2.08;;
78885;SDS011;68269;52.514;5.722;2024-03-17T09:03:49;8.82;;;2.83;;
78885;SDS011;68269;52.514;5.722;2024-03-17T09:06:21;9.95;;;2.67;;
78885;SDS011;68269;52.514;5.722;2024-03-17T09:08:55;8.25;;;2.10;;
78885;SDS011;68269;52.514;5.722;2024-03-17T09:11:27;8.65;;;2.47;;
78885;SDS011;68269;52.514;5.722;2024-03-17T09:13:56;8.48;;;2.78;;
78885;SDS011;68269;52.514;5.722;2024-03-17T09:16:26;10.90;;;2.55;;
78885;SDS011;68269;52.514;5.722;2024-03-17T09:18:57;8.15;;;2.40;;
78885;SDS011;68269;52.514;5.722;2024-03-17T09:21:27;8.77;;;2.95;;
78885;SDS011;68269;52.514;5.722;2024-03-17T09:23:56;5.82;;;1.60;;
78885;SDS011;68269;52.514;5.722;2024-03-17T09:26:28;8.40;;;2.30;;
78885;SDS011;68269;52.514;5.722;2024-03-17T09:28:59;9.13;;;3.13;;
78885;SDS011;68269;52.514;5.722;2024-03-17T09:31:29;9.95;;;2.90;;
78885;SDS011;68269;52.514;5.722;2024-03-17T09:34:00;10.35;;;2.70;;
78885;SDS011;68269;52.514;5.722;2024-03-17T09:36:30;9.73;;;2.33;;
78885;SDS011;68269;52.514;5.722;2024-03-17T09:38:59;5.28;;;1.33;;
78885;SDS011;68269;52.514;5.722;2024-03-17T09:41:33;8.40;;;2.60;;
78885;SDS011;68269;52.514;5.722;2024-03-17T09:44:04;7.80;;;2.75;;
78885;SDS011;68269;52.514;5.722;2024-03-17T09:46:38;8.10;;;2.45;;
78885;SDS011;68269;52.514;5.722;2024-03-17T09:49:09;10.30;;;2.80;;
78885;SDS011;68269;52.514;5.722;2024-03-17T09:51:43;9.73;;;2.72;;
78885;SDS011;68269;52.514;5.722;2024-03-17T09:54:16;7.63;;;2.38;;
78885;SDS011;68269;52.514;5.722;2024-03-17T09:56:49;7.20;;;2.58;;
78885;SDS011;68269;52.514;5.722;2024-03-17T09:59:19;8.80;;;2.35;;
78885;SDS011;68269;52.514;5.722;2024-03-17T10:01:48;9.57;;;2.85;;
78885;SDS011;68269;52.514;5.722;2024-03-17T10:04:30;10.57;;;3.00;;
78885;SDS011;68269;52.514;5.722;2024-03-17T10:07:01;10.32;;;3.03;;
78885;SDS011;68269;52.514;5.722;2024-03-17T10:09:31;9.13;;;2.63;;
78885;SDS011;68269;52.514;5.722;2024-03-17T10:12:02;8.48;;;2.17;;
78885;SDS011;68269;52.514;5.722;2024-03-17T10:14:35;10.43;;;2.92;;
78885;SDS011;68269;52.514;5.722;2024-03-17T10:17:04;10.05;;;3.17;;
78885;SDS011;68269;52.514;5.722;2024-03-17T10:19:36;8.25;;;3.00;;
78885;SDS011;68269;52.514;5.722;2024-03-17T10:22:05;8.52;;;2.58;;
78885;SDS011;68269;52.514;5.722;2024-03-17T10:24:41;8.02;;;2.35;;
78885;SDS011;68269;52.514;5.722;2024-03-17T10:27:13;10.43;;;2.70;;
78885;SDS011;68269;52.514;5.722;2024-03-17T10:29:42;9.55;;;2.72;;
78885;SDS011;68269;52.514;5.722;2024-03-17T10:32:13;12.50;;;2.58;;
78885;SDS011;68269;52.514;5.722;2024-03-17T10:34:44;8.85;;;2.40;;
78885;SDS011;68269;52.514;5.722;2024-03-17T10:37:14;9.98;;;2.85;;
78885;SDS011;68269;52.514;5.722;2024-03-17T10:39:46;10.52;;;2.72;;
78885;SDS011;68269;52.514;5.722;2024-03-17T10:42:24;9.13;;;3.17;;
78885;SDS011;68269;52.514;5.722;2024-03-17T10:44:54;9.75;;;2.28;;
78885;SDS011;68269;52.514;5.722;2024-03-17T10:47:24;10.50;;;2.63;;
78885;SDS011;68269;52.514;5.722;2024-03-17T10:49:55;7.38;;;1.92;;
78885;SDS011;68269;52.514;5.722;2024-03-17T10:52:29;8.90;;;2.28;;
78885;SDS011;68269;52.514;5.722;2024-03-17T10:57:41;6.28;;;1.70;;
78885;SDS011;68269;52.514;5.722;2024-03-17T11:00:14;9.90;;;2.35;;
78885;SDS011;68269;52.514;5.722;2024-03-17T11:02:47;11.77;;;2.83;;
78885;SDS011;68269;52.514;5.722;2024-03-17T11:05:18;8.82;;;2.50;;
78885;SDS011;68269;52.514;5.722;2024-03-17T11:07:51;7.00;;;2.08;;
78885;SDS011;68269;52.514;5.722;2024-03-17T11:10:22;7.65;;;2.30;;
78885;SDS011;68269;52.514;5.722;2024-03-17T11:12:56;9.18;;;2.92;;
78885;SDS011;68269;52.514;5.722;2024-03-17T11:15:36;10.65;;;2.40;;
78885;SDS011;68269;52.514;5.722;2024-03-17T11:20:59;8.15;;;2.33;;
78885;SDS011;68269;52.514;5.722;2024-03-17T11:23:34;8.10;;;2.10;;
78885;SDS011;68269;52.514;5.722;2024-03-17T11:26:06;6.07;;;2.00;;
78885;SDS011;68269;52.514;5.722;2024-03-17T11:28:48;9.10;;;2.42;;
78885;SDS011;68269;52.514;5.722;2024-03-17T11:31:33;9.35;;;2.28;;
78885;SDS011;68269;52.514;5.722;2024-03-17T11:34:01;8.73;;;2.63;;
78885;SDS011;68269;52.514;5.722;2024-03-17T11:36:33;9.45;;;2.42;;
78885;SDS011;68269;52.514;5.722;2024-03-17T11:39:06;7.35;;;2.17;;
78885;SDS011;68269;52.514;5.722;2024-03-17T11:41:40;8.00;;;2.10;;
78885;SDS011;68269;52.514;5.722;2024-03-17T11:44:15;5.95;;;1.38;;
78885;SDS011;68269;52.514;5.722;2024-03-17T11:46:50;7.70;;;2.05;;
78885;SDS011;68269;52.514;5.722;2024-03-17T11:49:20;6.47;;;2.05;;
78885;SDS011;68269;52.514;5.722;2024-03-17T11:51:48;7.50;;;1.52;;
78885;SDS011;68269;52.514;5.722;2024-03-17T11:54:18;7.82;;;2.40;;
78885;SDS011;68269;52.514;5.722;2024-03-17T11:56:47;7.80;;;1.85;;
78885;SDS011;68269;52.514;5.722;2024-03-17T11:59:20;7.60;;;2.10;;
78885;SDS011;68269;52.514;5.722;2024-03-17T12:01:50;7.15;;;1.80;;
78885;SDS011;68269;52.514;5.722;2024-03-17T12:06:47;6.93;;;2.60;;
78885;SDS011;68269;52.514;5.722;2024-03-17T12:09:18;7.55;;;2.22;;
78885;SDS011;68269;52.514;5.722;2024-03-17T12:11:50;6.95;;;2.28;;
78885;SDS011;68269;52.514;5.722;2024-03-17T12:14:26;9.77;;;2.13;;
78885;SDS011;68269;52.514;5.722;2024-03-17T12:16:56;6.20;;;1.75;;
78885;SDS011;68269;52.514;5.722;2024-03-17T12:19:23;8.27;;;2.22;;
78885;SDS011;68269;52.514;5.722;2024-03-17T12:21:53;7.72;;;2.22;;
78885;SDS011;68269;52.514;5.722;2024-03-17T12:24:22;7.53;;;1.98;;
78885;SDS011;68269;52.514;5.722;2024-03-17T12:26:53;7.15;;;2.42;;
78885;SDS011;68269;52.514;5.722;2024-03-17T12:29:22;7.97;;;2.08;;
78885;SDS011;68269;52.514;5.722;2024-03-17T12:31:56;7.07;;;1.73;;
78885;SDS011;68269;52.514;5.722;2024-03-17T12:34:24;9.73;;;2.95;;
78885;SDS011;68269;52.514;5.722;2024-03-17T12:36:55;7.68;;;2.08;;
78885;SDS011;68269;52.514;5.722;2024-03-17T12:39:24;7.85;;;2.53;;
78885;SDS011;68269;52.514;5.722;2024-03-17T12:42:00;8.40;;;2.05;;
78885;SDS011;68269;52.514;5.722;2024-03-17T12:44:31;6.57;;;1.73;;
78885;SDS011;68269;52.514;5.722;2024-03-17T12:49:29;6.43;;;1.98;;
78885;SDS011;68269;52.514;5.722;2024-03-17T12:52:00;9.50;;;3.00;;
78885;SDS011;68269;52.514;5.722;2024-03-17T12:54:27;8.27;;;2.17;;
78885;SDS011;68269;52.514;5.722;2024-03-17T12:57:03;6.82;;;1.80;;
78885;SDS011;68269;52.514;5.722;2024-03-17T12:59:48;9.90;;;2.35;;
78885;SDS011;68269;52.514;5.722;2024-03-17T13:02:30;5.95;;;2.00;;
78885;SDS011;68269;52.514;5.722;2024-03-17T13:07:46;9.07;;;3.10;;
78885;SDS011;68269;52.514;5.722;2024-03-17T13:10:16;9.63;;;2.70;;
78885;SDS011;68269;52.514;5.722;2024-03-17T13:12:46;8.40;;;2.55;;
78885;SDS011;68269;52.514;5.722;2024-03-17T13:15:19;6.85;;;2.30;;
78885;SDS011;68269;52.514;5.722;2024-03-17T13:17:48;8.88;;;2.53;;
78885;SDS011;68269;52.514;5.722;2024-03-17T13:20:18;6.53;;;2.55;;
78885;SDS011;68269;52.514;5.722;2024-03-17T13:22:47;9.10;;;2.20;;
78885;SDS011;68269;52.514;5.722;2024-03-17T13:25:17;8.48;;;3.17;;
78885;SDS011;68269;52.514;5.722;2024-03-17T13:27:48;10.55;;;3.17;;
78885;SDS011;68269;52.514;5.722;2024-03-17T13:30:22;6.97;;;2.08;;
78885;SDS011;68269;52.514;5.722;2024-03-17T13:32:54;11.98;;;2.78;;
78885;SDS011;68269;52.514;5.722;2024-03-17T13:35:25;6.68;;;1.95;;
78885;SDS011;68269;52.514;5.722;2024-03-17T13:37:56;8.20;;;1.80;;
78885;SDS011;68269;52.514;5.722;2024-03-17T13:40:27;7.47;;;2.05;;
78885;SDS011;68269;52.514;5.722;2024-03-17T13:42:57;6.95;;;2.30;;
78885;SDS011;68269;52.514;5.722;2024-03-17T13:45:26;7.18;;;2.28;;
78885;SDS011;68269;52.514;5.722;2024-03-17T13:48:02;13.68;;;2.70;;
78885;SDS011;68269;52.514;5.722;2024-03-17T13:50:35;8.07;;;2.55;;
78885;SDS011;68269;52.514;5.722;2024-03-17T13:53:04;8.68;;;3.30;;
78885;SDS011;68269;52.514;5.722;2024-03-17T13:55:33;11.07;;;2.67;;
78885;SDS011;68269;52.514;5.722;2024-03-17T13:58:04;8.73;;;2.83;;
78885;SDS011;68269;52.514;5.722;2024-03-17T14:00:36;8.35;;;2.92;;
78885;SDS011;68269;52.514;5.722;2024-03-17T14:03:05;9.32;;;2.22;;
78885;SDS011;68269;52.514;5.722;2024-03-17T14:05:34;7.38;;;2.35;;
78885;SDS011;68269;52.514;5.722;2024-03-17T14:08:04;8.63;;;2.78;;
78885;SDS011;68269;52.514;5.722;2024-03-17T14:10:35;7.00;;;1.77;;
78885;SDS011;68269;52.514;5.722;2024-03-17T14:13:04;8.77;;;2.47;;
78885;SDS011;68269;52.514;5.722;2024-03-17T14:15:36;8.40;;;2.08;;
78885;SDS011;68269;52.514;5.722;2024-03-17T14:18:05;7.10;;;2.28;;
78885;SDS011;68269;52.514;5.722;2024-03-17T14:20:35;9.13;;;2.65;;
78885;SDS011;68269;52.514;5.722;2024-03-17T14:23:05;11.48;;;2.35;;
78885;SDS011;68269;52.514;5.722;2024-03-17T14:25:34;8.20;;;2.28;;
78885;SDS011;68269;52.514;5.722;2024-03-17T14:28:05;8.13;;;2.95;;
78885;SDS011;68269;52.514;5.722;2024-03-17T14:30:37;9.35;;;2.38;;
78885;SDS011;68269;52.514;5.722;2024-03-17T14:33:06;8.02;;;2.63;;
78885;SDS011;68269;52.514;5.722;2024-03-17T14:35:36;8.40;;;2.95;;
78885;SDS011;68269;52.514;5.722;2024-03-17T14:38:07;7.53;;;2.47;;
78885;SDS011;68269;52.514;5.722;2024-03-17T14:40:36;9.48;;;2.50;;
78885;SDS011;68269;52.514;5.722;2024-03-17T14:43:06;8.57;;;2.50;;
78885;SDS011;68269;52.514;5.722;2024-03-17T14:45:39;12.18;;;3.13;;
78885;SDS011;68269;52.514;5.722;2024-03-17T14:48:08;9.25;;;2.45;;
78885;SDS011;68269;52.514;5.722;2024-03-17T14:50:39;9.23;;;2.42;;
78885;SDS011;68269;52.514;5.722;2024-03-17T14:53:08;10.50;;;3.50;;
78885;SDS011;68269;52.514;5.722;2024-03-17T14:55:37;12.23;;;3.90;;
78885;SDS011;68269;52.514;5.722;2024-03-17T14:58:06;8.73;;;2.45;;
78885;SDS011;68269;52.514;5.722;2024-03-17T15:00:36;10.95;;;3.58;;
78885;SDS011;68269;52.514;5.722;2024-03-17T15:03:08;8.98;;;2.70;;
78885;SDS011;68269;52.514;5.722;2024-03-17T15:05:37;9.23;;;2.92;;
78885;SDS011;68269;52.514;5.722;2024-03-17T15:08:08;9.70;;;3.03;;
78885;SDS011;68269;52.514;5.722;2024-03-17T15:10:37;8.77;;;2.72;;
78885;SDS011;68269;52.514;5.722;2024-03-17T15:13:07;9.25;;;2.75;;
78885;SDS011;68269;52.514;5.722;2024-03-17T15:15:42;8.45;;;3.13;;
78885;SDS011;68269;52.514;5.722;2024-03-17T15:20:42;7.82;;;2.50;;
78885;SDS011;68269;52.514;5.722;2024-03-17T15:23:11;6.72;;;2.00;;
78885;SDS011;68269;52.514;5.722;2024-03-17T15:25:42;7.15;;;2.42;;
78885;SDS011;68269;52.514;5.722;2024-03-17T15:28:11;11.32;;;3.33;;